Time;durP1;ratioP1;P1;durP2;ratioP2;P2;SDS_P1;SDS_P2;PMS_P1;PMS_P2;Temp;Humidity;BMP_temperature;BMP_pressure;BME280_temperature;BME280_humidity;BME280_pressure;Samples;Min_cycle;Max_cycle;Signal;HPM_P1;HPM_P2
2022/11/27 00:01:19;;;;;;;9.15;3.30;;;3.30;99.90;;;;;;5029028;28;20541;-67
2022/11/27 00:03:45;;;;;;;10.02;3.03;;;3.30;99.90;;;;;;5017416;28;20125;-66
2022/11/27 00:06:12;;;;;;;9.88;3.47;;;3.30;99.90;;;;;;5025253;28;20127;-69
2022/11/27 00:08:38;;;;;;;6.65;2.85;;;3.30;99.90;;;;;;5038562;28;20049;-67
2022/11/27 00:11:09;;;;;;;6.57;3.42;;;3.30;99.90;;;;;;5031441;28;20091;-67
2022/11/27 00:13:35;;;;;;;10.85;3.67;;;3.30;99.90;;;;;;5040256;28;20069;-67
2022/11/27 00:16:01;;;;;;;8.68;3.38;;;3.30;99.90;;;;;;5035205;28;20060;-67
2022/11/27 00:18:26;;;;;;;9.35;3.15;;;3.30;99.90;;;;;;5027832;28;20552;-66
2022/11/27 00:20:52;;;;;;;6.57;3.75;;;3.20;99.90;;;;;;5024827;28;20587;-66
2022/11/27 00:23:18;;;;;;;8.88;3.65;;;3.30;99.90;;;;;;5023839;28;20604;-66
2022/11/27 00:25:52;;;;;;;7.30;4.00;;;3.30;99.90;;;;;;5022749;28;20114;-67
2022/11/27 00:28:19;;;;;;;8.40;3.58;;;3.20;99.90;;;;;;5021019;28;20484;-67
2022/11/27 00:30:45;;;;;;;6.70;3.28;;;3.20;99.90;;;;;;5026362;28;20038;-67
2022/11/27 00:33:11;;;;;;;9.88;4.35;;;3.20;99.90;;;;;;5037015;28;20179;-67
2022/11/27 00:35:39;;;;;;;13.43;5.68;;;3.20;99.90;;;;;;5043217;28;20128;-66
2022/11/27 00:38:05;;;;;;;9.02;4.90;;;3.20;99.90;;;;;;5041628;28;20056;-66
2022/11/27 00:40:31;;;;;;;12.13;5.35;;;3.20;99.90;;;;;;5043145;28;20110;-66
2022/11/27 00:42:56;;;;;;;11.45;5.50;;;3.20;99.90;;;;;;5044538;28;20044;-66
2022/11/27 00:45:22;;;;;;;13.10;6.22;;;3.20;99.90;;;;;;5043301;28;20504;-67
2022/11/27 00:47:48;;;;;;;9.05;5.65;;;3.10;99.90;;;;;;5040019;28;20052;-66
2022/11/27 00:50:14;;;;;;;9.88;5.63;;;3.20;99.90;;;;;;5046158;28;20524;-66
2022/11/27 00:52:40;;;;;;;14.80;6.47;;;3.10;99.90;;;;;;5039780;28;20167;-66
2022/11/27 00:55:06;;;;;;;11.90;6.45;;;3.10;99.90;;;;;;5044129;28;20123;-66
2022/11/27 00:57:32;;;;;;;13.48;7.22;;;3.10;99.90;;;;;;5043696;28;20077;-67
2022/11/27 00:59:58;;;;;;;15.85;7.43;;;3.10;99.90;;;;;;5046277;28;20070;-67
2022/11/27 01:02:24;;;;;;;15.15;7.05;;;3.00;99.90;;;;;;5039407;28;20045;-67
2022/11/27 01:04:49;;;;;;;14.98;8.15;;;3.00;99.90;;;;;;5042333;28;20767;-67
2022/11/27 01:07:15;;;;;;;15.77;7.60;;;3.00;99.90;;;;;;5040056;28;20131;-67
2022/11/27 01:09:41;;;;;;;15.15;8.05;;;3.00;99.90;;;;;;5043020;28;20077;-67
2022/11/27 01:12:07;;;;;;;12.75;7.82;;;3.00;99.90;;;;;;5038382;28;20036;-66
2022/11/27 01:14:33;;;;;;;13.90;8.20;;;2.90;99.90;;;;;;5042208;28;20029;-66
2022/11/27 01:16:59;;;;;;;18.35;8.15;;;2.90;99.90;;;;;;5038577;28;20500;-66
2022/11/27 01:19:24;;;;;;;14.95;8.50;;;2.80;99.90;;;;;;5042649;28;20049;-67
2022/11/27 01:21:50;;;;;;;13.10;7.85;;;2.80;99.90;;;;;;5039106;28;20098;-67
2022/11/27 01:24:16;;;;;;;17.67;8.57;;;2.80;99.90;;;;;;5044048;28;20127;-67
2022/11/27 01:26:43;;;;;;;15.40;8.70;;;2.80;99.90;;;;;;5039775;28;20156;-67
2022/11/27 01:29:09;;;;;;;14.43;8.65;;;2.80;99.90;;;;;;5039869;28;20056;-66
2022/11/27 01:31:35;;;;;;;14.52;8.43;;;2.80;99.90;;;;;;5043308;28;20086;-67
2022/11/27 01:34:04;;;;;;;15.20;7.70;;;2.80;99.90;;;;;;5042124;28;20037;-67
2022/11/27 01:36:31;;;;;;;22.63;9.05;;;2.80;99.90;;;;;;5037923;28;20037;-66
2022/11/27 01:38:57;;;;;;;13.65;7.28;;;2.70;99.90;;;;;;5041039;28;20083;-67
2022/11/27 01:41:35;;;;;;;17.15;8.23;;;2.70;99.90;;;;;;5038923;28;20463;-67
2022/11/27 01:44:23;;;;;;;15.70;7.82;;;2.70;99.90;;;;;;5042063;28;20387;-66
2022/11/27 01:47:13;;;;;;;11.85;7.00;;;2.70;99.90;;;;;;5039903;28;20041;-66
2022/11/27 01:49:44;;;;;;;12.57;7.28;;;2.70;99.90;;;;;;5042939;28;20074;-68
2022/11/27 01:52:41;;;;;;;10.48;7.00;;;2.70;99.90;;;;;;5035585;28;20048;-67
2022/11/27 01:55:35;;;;;;;13.85;7.18;;;2.60;99.90;;;;;;5028031;28;20049;-67
2022/11/27 01:58:14;;;;;;;10.85;6.72;;;2.60;99.90;;;;;;5041390;28;20041;-66
2022/11/27 02:00:40;;;;;;;10.82;6.25;;;2.60;99.90;;;;;;5040755;28;20036;-66
2022/11/27 02:03:05;;;;;;;11.88;6.90;;;2.60;99.90;;;;;;5040155;28;20689;-66
2022/11/27 02:05:32;;;;;;;12.35;5.82;;;2.60;99.90;;;;;;5041467;28;21055;-67
2022/11/27 02:08:02;;;;;;;11.00;5.53;;;2.50;99.90;;;;;;5039036;28;20120;-67
2022/11/27 02:10:52;;;;;;;10.43;5.13;;;2.50;99.90;;;;;;5040189;28;20040;-67
2022/11/27 02:13:43;;;;;;;13.90;5.97;;;2.50;99.90;;;;;;5040561;28;20044;-68
2022/11/27 02:16:46;;;;;;;8.70;5.72;;;2.50;99.90;;;;;;5032135;28;20124;-68
2022/11/27 02:19:29;;;;;;;11.68;5.20;;;2.40;99.90;;;;;;5035392;28;20719;-67
2022/11/27 02:22:03;;;;;;;9.88;4.60;;;2.40;99.90;;;;;;5036467;28;20072;-67
2022/11/27 02:24:46;;;;;;;7.78;4.45;;;2.50;99.90;;;;;;5040659;28;20041;-67
2022/11/27 02:27:42;;;;;;;10.55;4.40;;;2.50;99.90;;;;;;5034120;28;20044;-67
2022/11/27 02:30:09;;;;;;;8.90;4.80;;;2.50;99.90;;;;;;5044122;28;20558;-67
2022/11/27 02:32:40;;;;;;;9.85;4.68;;;2.50;99.90;;;;;;5038195;28;20646;-67
2022/11/27 02:35:26;;;;;;;12.15;4.88;;;2.40;99.90;;;;;;5040389;28;20489;-67
2022/11/27 02:38:11;;;;;;;9.27;4.70;;;2.50;99.90;;;;;;5039477;28;20075;-67
2022/11/27 02:41:03;;;;;;;15.13;4.50;;;2.50;99.90;;;;;;5041040;28;20401;-67
2022/11/27 02:43:35;;;;;;;11.38;4.57;;;2.50;99.90;;;;;;5041494;28;20496;-67
2022/11/27 02:46:03;;;;;;;10.57;4.50;;;2.40;99.90;;;;;;5038032;28;20040;-67
2022/11/27 02:48:35;;;;;;;10.02;4.55;;;2.30;99.90;;;;;;5040251;28;20052;-67
2022/11/27 02:51:04;;;;;;;13.25;4.38;;;2.30;99.90;;;;;;5041944;28;20111;-67
2022/11/27 02:53:36;;;;;;;11.32;5.00;;;2.20;99.90;;;;;;5039935;28;20040;-67
2022/11/27 02:56:06;;;;;;;8.60;4.22;;;2.20;99.90;;;;;;5038959;28;20106;-67
2022/11/27 02:58:35;;;;;;;8.77;4.00;;;2.20;99.90;;;;;;5037534;28;20040;-68
2022/11/27 03:01:01;;;;;;;8.10;4.10;;;2.10;99.90;;;;;;5037645;28;20037;-67
2022/11/27 03:03:34;;;;;;;9.20;3.88;;;2.10;99.90;;;;;;5037777;28;20123;-67
2022/11/27 03:06:05;;;;;;;6.68;3.45;;;2.10;99.90;;;;;;5037722;28;20041;-67
2022/11/27 03:08:42;;;;;;;6.47;3.80;;;2.10;99.90;;;;;;5038019;28;20076;-67
2022/11/27 03:11:11;;;;;;;8.95;3.65;;;2.00;99.90;;;;;;5038748;28;20037;-67
2022/11/27 03:13:43;;;;;;;6.85;3.83;;;2.00;99.90;;;;;;5039209;28;20076;-67
2022/11/27 03:16:34;;;;;;;6.90;3.70;;;2.00;99.90;;;;;;5035945;28;20045;-67
2022/11/27 03:19:23;;;;;;;7.60;3.80;;;2.00;99.90;;;;;;5042091;28;20043;-68
2022/11/27 03:21:55;;;;;;;8.07;3.78;;;2.00;99.90;;;;;;5036717;28;20113;-67
2022/11/27 03:24:22;;;;;;;10.20;5.28;;;1.90;99.90;;;;;;5042495;28;20051;-67
2022/11/27 03:26:48;;;;;;;12.43;5.05;;;1.90;99.90;;;;;;5038586;28;20041;-67
2022/11/27 03:29:18;;;;;;;12.77;4.15;;;2.00;99.90;;;;;;5043089;28;20041;-67
2022/11/27 03:31:43;;;;;;;10.50;4.30;;;1.90;99.90;;;;;;5036956;28;20038;-67
2022/11/27 03:34:09;;;;;;;10.20;4.45;;;1.90;99.90;;;;;;5040971;28;20523;-68
2022/11/27 03:36:35;;;;;;;13.00;4.88;;;1.90;99.90;;;;;;5035351;28;20048;-67
2022/11/27 03:39:01;;;;;;;10.65;4.00;;;1.90;99.90;;;;;;5042198;28;20072;-67
2022/11/27 03:41:41;;;;;;;7.20;3.67;;;1.90;99.90;;;;;;5040642;28;20103;-67
2022/11/27 03:44:15;;;;;;;9.20;4.78;;;1.90;99.90;;;;;;5042818;28;20131;-67
2022/11/27 03:46:49;;;;;;;7.78;4.28;;;1.90;99.90;;;;;;5037173;28;20041;-67
2022/11/27 03:49:32;;;;;;;12.15;4.93;;;1.90;99.90;;;;;;5036495;28;20041;-67
2022/11/27 03:52:05;;;;;;;10.13;4.05;;;1.90;99.90;;;;;;5038462;28;20125;-67
2022/11/27 03:54:55;;;;;;;12.07;5.70;;;1.90;99.90;;;;;;5042489;28;20051;-68
2022/11/27 03:57:52;;;;;;;11.02;4.60;;;1.80;99.90;;;;;;5042351;28;20492;-67
2022/11/27 04:00:18;;;;;;;;;;;1.80;99.90;;;;;;5037196;28;20040;-67
2022/11/27 04:02:50;;;;;;;8.20;4.23;;;1.70;99.90;;;;;;5038952;28;20236;-67
2022/11/27 04:05:16;;;;;;;11.43;4.78;;;1.70;99.90;;;;;;5037363;28;20037;-67
2022/11/27 04:07:42;;;;;;;11.15;4.13;;;1.70;99.90;;;;;;5039506;28;20040;-67
2022/11/27 04:10:10;;;;;;;7.60;4.22;;;1.70;99.90;;;;;;5041526;28;20526;-67
2022/11/27 04:12:36;;;;;;;10.60;4.80;;;1.70;99.90;;;;;;5041640;28;20045;-67
2022/11/27 04:15:02;;;;;;;12.00;4.65;;;1.80;99.90;;;;;;5045184;28;20047;-67
2022/11/27 04:17:28;;;;;;;12.65;4.63;;;1.70;99.90;;;;;;5040623;28;20037;-67
2022/11/27 04:19:54;;;;;;;12.90;4.55;;;1.70;99.90;;;;;;5045565;28;20044;-66
2022/11/27 04:22:20;;;;;;;10.85;4.07;;;1.70;99.90;;;;;;5041033;28;20390;-67
2022/11/27 04:24:45;;;;;;;8.95;4.53;;;1.70;99.90;;;;;;5046133;28;20409;-67
2022/11/27 04:27:11;;;;;;;9.07;4.30;;;1.70;99.90;;;;;;5040492;28;20041;-67
2022/11/27 04:29:37;;;;;;;9.68;4.63;;;1.70;99.90;;;;;;5046580;28;20044;-67
2022/11/27 04:32:03;;;;;;;11.63;4.45;;;1.70;99.90;;;;;;5039024;28;20096;-66
2022/11/27 04:34:30;;;;;;;9.07;4.47;;;1.70;99.90;;;;;;5045756;28;20040;-67
2022/11/27 04:36:55;;;;;;;12.05;4.82;;;1.60;99.90;;;;;;5041867;28;20049;-67
2022/11/27 04:39:21;;;;;;;9.30;4.07;;;1.60;99.90;;;;;;5046109;28;20492;-66
2022/11/27 04:41:46;;;;;;;16.08;4.38;;;1.60;99.90;;;;;;5038521;28;20029;-66
2022/11/27 04:44:12;;;;;;;9.65;4.32;;;1.60;99.90;;;;;;5044072;28;20035;-67
2022/11/27 04:46:38;;;;;;;9.90;4.40;;;1.60;99.90;;;;;;5039027;28;20080;-66
2022/11/27 04:49:04;;;;;;;16.70;4.72;;;1.60;99.90;;;;;;5041651;28;20033;-67
2022/11/27 04:51:29;;;;;;;13.57;4.80;;;1.60;99.90;;;;;;5040559;28;20116;-67
2022/11/27 04:53:55;;;;;;;8.52;5.15;;;1.60;99.90;;;;;;5041388;28;20043;-67
2022/11/27 04:56:21;;;;;;;16.38;6.18;;;1.60;99.90;;;;;;5039977;28;20392;-68
2022/11/27 04:58:46;;;;;;;12.52;4.90;;;1.60;99.90;;;;;;5042317;28;20033;-67
2022/11/27 05:01:12;;;;;;;15.23;5.15;;;1.60;99.90;;;;;;5041052;28;20041;-67
2022/11/27 05:03:38;;;;;;;8.25;4.80;;;1.60;99.90;;;;;;5045452;28;20033;-67
2022/11/27 05:06:04;;;;;;;11.90;4.90;;;1.60;99.90;;;;;;5044269;28;20382;-67
2022/11/27 05:08:31;;;;;;;14.18;5.00;;;1.70;99.90;;;;;;5043865;28;20033;-67
2022/11/27 05:11:10;;;;;;;12.27;5.50;;;1.70;99.90;;;;;;5043790;28;20040;-67
2022/11/27 05:13:36;;;;;;;11.18;5.10;;;1.70;99.90;;;;;;5042650;28;20045;-67
2022/11/27 05:16:02;;;;;;;10.30;5.18;;;1.60;99.90;;;;;;5040890;28;20072;-67
2022/11/27 05:18:28;;;;;;;13.85;6.32;;;1.60;99.90;;;;;;5046068;28;20567;-67
2022/11/27 05:21:03;;;;;;;12.40;6.72;;;1.60;99.90;;;;;;5042890;28;20036;-67
2022/11/27 05:23:29;;;;;;;19.10;7.68;;;1.60;99.90;;;;;;5045020;28;20064;-67
2022/11/27 05:25:55;;;;;;;12.13;5.45;;;1.60;99.90;;;;;;5043650;28;20056;-67
2022/11/27 05:28:21;;;;;;;11.65;5.45;;;1.70;99.90;;;;;;5046237;28;20037;-68
2022/11/27 05:30:48;;;;;;;11.40;4.75;;;1.70;99.90;;;;;;5042492;28;20069;-68
2022/11/27 05:33:15;;;;;;;8.02;4.03;;;1.60;99.90;;;;;;5046537;28;20093;-67
2022/11/27 05:35:41;;;;;;;8.13;3.72;;;1.60;99.90;;;;;;5053781;28;20058;-67
2022/11/27 05:38:08;;;;;;;12.05;4.45;;;1.60;99.90;;;;;;5049368;28;20064;-67
2022/11/27 05:40:34;;;;;;;9.25;4.47;;;1.60;99.90;;;;;;5043478;28;20060;-67
2022/11/27 05:43:00;;;;;;;9.00;5.18;;;1.70;99.90;;;;;;5042609;28;20066;-67
2022/11/27 05:45:26;;;;;;;8.65;3.95;;;1.60;99.90;;;;;;5041106;28;20631;-67
2022/11/27 05:47:51;;;;;;;8.45;4.13;;;1.60;99.90;;;;;;5042493;28;20037;-66
2022/11/27 05:50:17;;;;;;;8.60;4.32;;;1.60;99.90;;;;;;5043231;28;20107;-67
2022/11/27 05:52:43;;;;;;;7.10;3.88;;;1.60;99.90;;;;;;5040413;28;20094;-67
2022/11/27 05:55:08;;;;;;;8.48;3.67;;;1.70;99.90;;;;;;5042504;28;20090;-67
2022/11/27 05:57:34;;;;;;;7.60;4.38;;;1.80;99.90;;;;;;5038475;28;20597;-63
2022/11/27 06:00:00;;;;;;;8.90;4.20;;;1.80;99.90;;;;;;5042151;28;20581;-67
2022/11/27 06:02:26;;;;;;;7.90;5.00;;;1.80;99.90;;;;;;5038005;28;20093;-67
2022/11/27 06:04:51;;;;;;;8.10;4.53;;;1.80;99.90;;;;;;5042813;28;20040;-67
2022/11/27 06:07:18;;;;;;;12.18;4.30;;;1.90;99.90;;;;;;5038682;28;20037;-67
2022/11/27 06:09:43;;;;;;;8.95;4.28;;;1.90;99.90;;;;;;5043452;28;20037;-67
2022/11/27 06:12:09;;;;;;;7.32;3.80;;;1.90;99.90;;;;;;5037044;28;20048;-67
2022/11/27 06:14:35;;;;;;;14.18;4.43;;;1.90;99.90;;;;;;5039241;28;20797;-66
2022/11/27 06:17:01;;;;;;;6.97;3.97;;;1.90;99.90;;;;;;5038942;28;20045;-67
2022/11/27 06:19:28;;;;;;;7.85;4.55;;;2.00;99.90;;;;;;5043928;28;20075;-67
2022/11/27 06:21:53;;;;;;;9.70;4.20;;;2.10;99.90;;;;;;5039345;28;20048;-67
2022/11/27 06:24:19;;;;;;;15.75;4.88;;;2.10;99.90;;;;;;5041862;28;20041;-68
2022/11/27 06:26:45;;;;;;;10.43;4.03;;;2.00;99.90;;;;;;5036487;28;20108;-68
2022/11/27 06:29:11;;;;;;;8.43;4.53;;;2.00;99.90;;;;;;5041893;28;20033;-68
2022/11/27 06:31:37;;;;;;;9.23;4.90;;;2.00;99.90;;;;;;5038915;28;20139;-67
2022/11/27 06:34:04;;;;;;;7.10;4.07;;;2.00;99.90;;;;;;5041777;28;20033;-68
2022/11/27 06:36:36;;;;;;;8.38;4.20;;;2.00;99.90;;;;;;5038875;28;20049;-66
2022/11/27 06:39:04;;;;;;;10.75;4.93;;;2.00;99.90;;;;;;5045994;28;20082;-67
2022/11/27 06:41:30;;;;;;;10.55;4.47;;;2.00;99.90;;;;;;5051584;28;20067;-67
2022/11/27 06:43:58;;;;;;;7.30;4.07;;;2.00;99.90;;;;;;5041091;28;20578;-70
2022/11/27 06:46:25;;;;;;;5.47;3.55;;;1.90;99.90;;;;;;5037572;28;20148;-69
2022/11/27 06:48:52;;;;;;;10.43;4.20;;;1.90;99.90;;;;;;5038325;28;20045;-67
2022/11/27 06:51:21;;;;;;;9.30;4.38;;;1.80;99.90;;;;;;5043026;28;20071;-66
2022/11/27 06:53:47;;;;;;;12.98;4.20;;;1.80;99.90;;;;;;5041500;28;20044;-69
2022/11/27 06:56:17;;;;;;;5.78;3.83;;;1.80;99.90;;;;;;5040963;28;20037;-68
2022/11/27 06:58:43;;;;;;;9.75;3.92;;;1.80;99.90;;;;;;5044030;28;20428;-66
2022/11/27 07:01:13;;;;;;;7.18;3.88;;;1.80;99.90;;;;;;5040375;28;20051;-68
2022/11/27 07:03:39;;;;;;;7.55;4.25;;;1.90;99.90;;;;;;5039329;28;20128;-66
2022/11/27 07:06:07;;;;;;;8.23;5.03;;;1.90;99.90;;;;;;5040054;28;20606;-71
2022/11/27 07:08:33;;;;;;;10.85;5.20;;;1.90;99.90;;;;;;5039390;28;20093;-69
2022/11/27 07:11:03;;;;;;;9.85;4.35;;;2.00;99.90;;;;;;5042846;28;20563;-68
2022/11/27 07:13:29;;;;;;;11.48;3.85;;;2.00;99.90;;;;;;5038838;28;20068;-68
2022/11/27 07:15:59;;;;;;;8.48;4.22;;;2.00;99.90;;;;;;5039549;28;20044;-69
2022/11/27 07:18:25;;;;;;;12.48;4.30;;;2.00;99.90;;;;;;5036821;28;20056;-68
2022/11/27 07:20:51;;;;;;;9.05;4.50;;;2.00;99.90;;;;;;5042993;28;20036;-68
2022/11/27 07:23:17;;;;;;;10.57;4.55;;;2.10;99.90;;;;;;5040104;28;20079;-68
2022/11/27 07:25:43;;;;;;;7.53;4.15;;;2.20;99.90;;;;;;5041502;28;20069;-68
2022/11/27 07:28:08;;;;;;;9.00;4.20;;;2.20;99.90;;;;;;5040395;28;20041;-68
2022/11/27 07:30:34;;;;;;;7.72;3.88;;;2.20;99.90;;;;;;5043872;28;20044;-68
2022/11/27 07:33:00;;;;;;;9.70;4.50;;;2.30;99.90;;;;;;5043438;28;20032;-68
2022/11/27 07:35:25;;;;;;;15.18;5.30;;;2.40;99.90;;;;;;5046621;28;20033;-67
2022/11/27 07:37:51;;;;;;;11.18;5.00;;;2.50;99.90;;;;;;5050232;28;20041;-67
2022/11/27 07:40:17;;;;;;;12.23;4.68;;;2.60;99.90;;;;;;5045799;28;20044;-67
2022/11/27 07:42:43;;;;;;;9.77;4.68;;;2.60;99.90;;;;;;5036497;28;20052;-66
2022/11/27 07:45:10;;;;;;;9.07;4.20;;;2.70;99.90;;;;;;5041792;28;20084;-67
2022/11/27 07:47:36;;;;;;;12.68;4.50;;;2.80;99.90;;;;;;5047245;28;20071;-67
2022/11/27 07:50:02;;;;;;;9.57;4.90;;;2.80;99.90;;;;;;5046694;28;20512;-67
2022/11/27 07:52:28;;;;;;;10.00;4.68;;;2.80;99.90;;;;;;5043489;28;20037;-67
2022/11/27 07:54:54;;;;;;;14.65;5.50;;;2.90;99.90;;;;;;5048133;28;20124;-67
2022/11/27 07:57:20;;;;;;;9.82;4.88;;;2.90;99.90;;;;;;5047227;28;20419;-67
2022/11/27 07:59:46;;;;;;;8.27;4.38;;;2.90;99.90;;;;;;5047359;28;20064;-67
2022/11/27 08:02:12;;;;;;;7.38;4.10;;;3.00;99.90;;;;;;5044449;28;20127;-67
2022/11/27 08:04:38;;;;;;;8.13;4.30;;;3.00;99.90;;;;;;5048616;28;20682;-67
2022/11/27 08:07:04;;;;;;;6.78;4.05;;;3.00;99.90;;;;;;5041707;28;20072;-68
2022/11/27 08:09:29;;;;;;;11.68;4.90;;;3.00;99.90;;;;;;5042886;28;20037;-67
2022/11/27 08:11:55;;;;;;;6.40;3.95;;;3.00;99.90;;;;;;5044272;28;20122;-67
2022/11/27 08:14:21;;;;;;;8.25;3.65;;;3.00;99.90;;;;;;5046406;28;20041;-65
2022/11/27 08:16:46;;;;;;;8.30;4.15;;;3.10;99.90;;;;;;5040945;28;20497;-66
2022/11/27 08:19:12;;;;;;;9.57;4.40;;;3.10;99.90;;;;;;5046106;28;20093;-67
2022/11/27 08:21:38;;;;;;;9.13;4.43;;;3.10;99.90;;;;;;5042144;28;20115;-67
2022/11/27 08:24:04;;;;;;;10.45;4.75;;;3.20;99.90;;;;;;5044903;28;20048;-67
2022/11/27 08:26:30;;;;;;;9.00;4.25;;;3.30;99.90;;;;;;5042234;28;20044;-66
2022/11/27 08:28:56;;;;;;;9.30;4.28;;;3.50;99.90;;;;;;5050310;28;20052;-67
2022/11/27 08:31:22;;;;;;;8.63;3.78;;;3.60;99.90;;;;;;5050156;28;20131;-63
2022/11/27 08:33:49;;;;;;;8.38;4.88;;;3.70;99.90;;;;;;5042063;28;20138;-68
2022/11/27 08:36:15;;;;;;;10.02;4.72;;;3.80;99.90;;;;;;5043367;28;20037;-70
2022/11/27 08:38:40;;;;;;;9.75;4.35;;;4.00;99.90;;;;;;5042244;28;20775;-67
2022/11/27 08:41:08;;;;;;;9.60;4.50;;;4.10;99.90;;;;;;5043796;28;20123;-67
2022/11/27 08:43:34;;;;;;;7.53;3.72;;;4.10;99.90;;;;;;5046575;28;20119;-67
2022/11/27 08:46:03;;;;;;;7.30;4.00;;;4.20;99.90;;;;;;5054406;28;20045;-67
2022/11/27 08:48:29;;;;;;;8.32;4.50;;;4.20;99.90;;;;;;5040012;28;20044;-66
2022/11/27 08:50:55;;;;;;;10.02;3.72;;;4.30;99.90;;;;;;5054951;28;20033;-68
2022/11/27 08:53:21;;;;;;;7.03;3.53;;;4.30;99.90;;;;;;5042452;28;20037;-67
2022/11/27 08:55:46;;;;;;;11.63;3.92;;;4.40;99.90;;;;;;5044252;28;20175;-68
2022/11/27 08:58:12;;;;;;;7.38;3.63;;;4.60;99.90;;;;;;5046218;28;20037;-66
2022/11/27 09:00:39;;;;;;;6.97;3.72;;;4.70;99.90;;;;;;5043487;28;20122;-67
2022/11/27 09:03:05;;;;;;;6.93;4.50;;;4.80;99.90;;;;;;5041799;28;20472;-69
2022/11/27 09:05:31;;;;;;;9.18;3.78;;;4.90;99.90;;;;;;5042755;28;20128;-67
2022/11/27 09:07:58;;;;;;;9.88;4.10;;;5.10;99.90;;;;;;5042130;28;20045;-68
2022/11/27 09:10:24;;;;;;;8.32;3.80;;;5.20;99.90;;;;;;5043906;28;20045;-66
2022/11/27 09:12:51;;;;;;;7.97;4.55;;;5.20;99.90;;;;;;5041285;28;20037;-67
2022/11/27 09:15:17;;;;;;;7.68;4.30;;;5.30;99.90;;;;;;5044882;28;20485;-66
2022/11/27 09:17:43;;;;;;;7.45;4.03;;;5.30;99.90;;;;;;5039175;28;20052;-66
2022/11/27 09:20:10;;;;;;;7.70;3.35;;;5.30;99.90;;;;;;5043777;28;20036;-66
2022/11/27 09:22:36;;;;;;;5.63;3.53;;;5.40;99.90;;;;;;5039492;28;20048;-67
2022/11/27 09:25:02;;;;;;;7.72;3.35;;;5.50;99.90;;;;;;5043417;28;20040;-67
2022/11/27 09:27:28;;;;;;;8.73;3.53;;;5.60;99.90;;;;;;5039976;28;20164;-67
2022/11/27 09:29:53;;;;;;;12.13;3.40;;;5.60;99.90;;;;;;5045402;28;20198;-67
2022/11/27 09:32:20;;;;;;;6.07;3.42;;;5.60;99.90;;;;;;5043671;22;20502;-68
2022/11/27 09:34:46;;;;;;;7.45;3.55;;;5.70;99.90;;;;;;5061183;28;20044;-68
2022/11/27 09:37:11;;;;;;;9.65;4.25;;;5.70;99.90;;;;;;5062695;28;20645;-68
2022/11/27 09:39:37;;;;;;;;;;;5.70;99.90;;;;;;5057145;28;20044;-68
2022/11/27 09:42:05;;;;;;;7.53;3.20;;;5.70;99.90;;;;;;5062266;28;19928;-68
2022/11/27 09:44:49;;;;;;;6.00;3.20;;;5.80;99.90;;;;;;5049174;28;20540;-67
2022/11/27 09:47:21;;;;;;;10.23;3.60;;;5.80;99.90;;;;;;5060250;28;20047;-68
2022/11/27 09:49:51;;;;;;;5.47;2.88;;;5.80;99.90;;;;;;5062622;28;20047;-68
2022/11/27 09:52:27;;;;;;;5.35;3.08;;;5.90;99.90;;;;;;5056793;28;20067;-68
2022/11/27 09:54:59;;;;;;;10.80;3.67;;;5.90;99.90;;;;;;5052224;28;20040;-67
2022/11/27 09:57:35;;;;;;;5.85;2.65;;;5.90;99.90;;;;;;5060668;28;20127;-68
2022/11/27 10:00:12;;;;;;;6.95;3.17;;;6.00;99.90;;;;;;5047114;28;20048;-68
2022/11/27 10:02:39;;;;;;;9.65;2.85;;;6.00;99.90;;;;;;5060224;28;20047;-68
2022/11/27 10:05:31;;;;;;;7.65;2.65;;;6.20;99.90;;;;;;5060280;28;20040;-67
2022/11/27 10:08:32;;;;;;;7.57;3.58;;;6.40;99.90;;;;;;5055483;28;20377;-68
2022/11/27 10:11:10;;;;;;;5.47;3.15;;;6.40;99.90;;;;;;5040569;28;20353;-67
2022/11/27 10:13:59;;;;;;;7.18;2.70;;;6.40;99.90;;;;;;5056131;28;20032;-68
2022/11/27 10:16:44;;;;;;;7.05;3.20;;;6.40;99.90;;;;;;5056251;28;20044;-69
2022/11/27 10:19:41;;;;;;;12.30;4.22;;;6.40;99.90;;;;;;5063630;28;20396;-68
2022/11/27 10:22:19;;;;;;;4.43;2.47;;;6.60;99.90;;;;;;5058658;28;20844;-67
2022/11/27 10:24:52;;;;;;;6.90;2.85;;;6.80;99.90;;;;;;5054708;28;20046;-66
2022/11/27 10:27:44;;;;;;;5.43;2.53;;;7.10;99.90;;;;;;5056015;28;20033;-69
2022/11/27 10:30:20;;;;;;;5.57;2.60;;;7.20;99.90;;;;;;5052200;28;20047;-68
2022/11/27 10:32:50;;;;;;;5.03;2.50;;;7.20;99.90;;;;;;5060657;28;20037;-68
2022/11/27 10:35:18;;;;;;;6.28;2.40;;;7.20;99.90;;;;;;5051541;28;20268;-70
2022/11/27 10:38:02;;;;;;;9.55;2.50;;;7.00;99.90;;;;;;5052588;28;20041;-69
2022/11/27 10:40:52;;;;;;;6.15;2.80;;;7.00;99.90;;;;;;5053842;28;20349;-69
2022/11/27 10:43:19;;;;;;;2.88;1.90;;;6.90;99.90;;;;;;5054880;28;20071;-71
2022/11/27 10:45:53;;;;;;;7.22;2.55;;;6.90;99.90;;;;;;5049690;28;20827;-69
2022/11/27 10:48:20;;;;;;;5.45;2.60;;;6.80;99.90;;;;;;5054942;28;20029;-68
2022/11/27 10:50:45;;;;;;;5.47;2.30;;;6.80;99.90;;;;;;5054276;28;20598;-69
2022/11/27 10:53:31;;;;;;;;;;;6.80;99.90;;;;;;5056793;28;20035;-69
2022/11/27 10:56:13;;;;;;;5.05;2.30;;;6.80;99.90;;;;;;5053767;28;19916;-69
2022/11/27 10:58:54;;;;;;;10.15;2.80;;;6.80;99.90;;;;;;5062711;28;20136;-70
2022/11/27 11:01:22;;;;;;;7.90;2.90;;;6.80;99.90;;;;;;5054701;28;20135;-70
2022/11/27 11:03:49;;;;;;;4.88;2.40;;;6.80;99.90;;;;;;5061246;28;20048;-69
2022/11/27 11:06:24;;;;;;;7.53;3.35;;;6.80;99.90;;;;;;5049999;28;20043;-68
2022/11/27 11:09:20;;;;;;;11.13;2.90;;;6.80;99.90;;;;;;5054600;28;20040;-68
2022/11/27 11:11:45;;;;;;;7.55;2.67;;;6.80;99.90;;;;;;5054571;28;20052;-66
2022/11/27 11:14:21;;;;;;;;;;;6.80;99.90;;;;;;5048876;28;20037;-68
2022/11/27 11:16:48;;;;;;;6.57;2.53;;;6.80;99.90;;;;;;5042645;28;20287;-67
2022/11/27 11:19:23;;;;;;;6.63;2.95;;;6.80;99.90;;;;;;5041757;28;20045;-69
2022/11/27 11:21:49;;;;;;;6.88;2.45;;;6.90;99.90;;;;;;5057930;28;20045;-67
2022/11/27 11:24:20;;;;;;;;;;;6.90;99.90;;;;;;5058631;28;20036;-68
2022/11/27 11:26:50;;;;;;;7.75;2.17;;;6.90;99.90;;;;;;5055152;28;19936;-70
2022/11/27 11:29:30;;;;;;;6.45;2.17;;;6.90;99.90;;;;;;5055997;28;20052;-71
2022/11/27 11:32:01;;;;;;;6.03;2.33;;;7.00;99.90;;;;;;5058808;28;20111;-70
2022/11/27 11:34:29;;;;;;;5.90;2.58;;;7.00;99.90;;;;;;5057688;28;20049;-70
2022/11/27 11:36:58;;;;;;;3.78;2.15;;;7.00;99.90;;;;;;5054944;28;20044;-72
2022/11/27 11:39:27;;;;;;;5.90;2.65;;;7.00;99.90;;;;;;5053911;28;20045;-71
2022/11/27 11:41:53;;;;;;;5.07;2.08;;;6.90;99.90;;;;;;5056719;28;20036;-70
2022/11/27 11:44:22;;;;;;;;;;;6.90;99.90;;;;;;5051430;28;20211;-70
2022/11/27 11:46:53;;;;;;;4.75;1.98;;;6.90;99.90;;;;;;5052881;28;20118;-71
2022/11/27 11:49:24;;;;;;;4.55;2.10;;;6.90;99.90;;;;;;5038943;28;20063;-71
2022/11/27 11:52:20;;;;;;;4.60;1.80;;;6.90;99.90;;;;;;5059401;28;20531;-70
2022/11/27 11:55:13;;;;;;;7.15;1.92;;;6.90;99.90;;;;;;5060438;28;20044;-70
2022/11/27 11:57:51;;;;;;;4.38;1.90;;;7.00;99.90;;;;;;5048327;28;20044;-71
2022/11/27 12:00:28;;;;;;;4.68;1.88;;;7.00;99.90;;;;;;5048176;28;20045;-68
2022/11/27 12:03:25;;;;;;;7.07;2.40;;;7.10;99.90;;;;;;5056469;28;20916;-70
2022/11/27 12:06:00;;;;;;;8.27;2.25;;;7.00;99.90;;;;;;5052007;28;20036;-70
2022/11/27 12:08:39;;;;;;;6.25;2.42;;;7.00;99.90;;;;;;5036770;28;20041;-71
2022/11/27 12:11:36;;;;;;;7.15;2.67;;;7.00;99.90;;;;;;5057806;28;20120;-69
2022/11/27 12:14:40;;;;;;;5.97;3.35;;;6.80;99.90;;;;;;5038616;28;20053;-70
2022/11/27 12:17:22;;;;;;;3.45;1.55;;;6.80;99.90;;;;;;4979519;28;20078;-71
2022/11/27 12:20:03;;;;;;;7.10;2.65;;;6.90;99.90;;;;;;4978730;28;20062;-70
2022/11/27 12:22:59;;;;;;;12.82;2.88;;;7.00;99.90;;;;;;5029132;28;20060;-71
2022/11/27 12:25:36;;;;;;;4.40;1.80;;;7.00;99.90;;;;;;5054203;28;20039;-70
2022/11/27 12:28:36;;;;;;;6.60;1.67;;;7.10;99.90;;;;;;5063924;28;20097;-71
2022/11/27 12:31:14;;;;;;;6.95;1.80;;;7.10;99.90;;;;;;5058519;28;20047;-71
2022/11/27 12:33:56;;;;;;;5.35;1.98;;;7.10;99.90;;;;;;5061120;28;20040;-69
2022/11/27 12:36:43;;;;;;;4.72;1.80;;;7.10;99.90;;;;;;5058770;28;20708;-69
2022/11/27 12:39:31;;;;;;;5.57;2.03;;;7.20;99.90;;;;;;5057423;28;20112;-70
2022/11/27 12:42:26;;;;;;;3.83;1.85;;;7.20;99.90;;;;;;5060828;28;20166;-70
2022/11/27 12:45:17;;;;;;;4.50;1.75;;;7.30;99.90;;;;;;5049569;28;20076;-71
2022/11/27 12:47:48;;;;;;;5.30;2.05;;;7.20;99.90;;;;;;5063320;28;20754;-69
2022/11/27 12:50:42;;;;;;;3.47;1.63;;;7.10;99.90;;;;;;5055532;28;20107;-70
2022/11/27 12:53:27;;;;;;;4.03;1.45;;;7.10;99.90;;;;;;5064507;28;20040;-70
2022/11/27 12:56:21;;;;;;;4.45;2.00;;;7.20;99.90;;;;;;5060557;28;20075;-69
2022/11/27 12:58:55;;;;;;;6.82;1.90;;;7.20;99.90;;;;;;5062135;28;20082;-70
2022/11/27 13:01:28;;;;;;;4.60;1.40;;;7.10;99.90;;;;;;5040424;28;20037;-69
2022/11/27 13:04:11;;;;;;;3.92;1.83;;;7.10;99.90;;;;;;5064376;28;20036;-69
2022/11/27 13:06:51;;;;;;;5.53;2.30;;;7.20;99.90;;;;;;5061057;28;20052;-70
2022/11/27 13:09:30;;;;;;;6.78;1.73;;;7.20;99.90;;;;;;5058040;28;20044;-67
2022/11/27 13:11:56;;;;;;;3.63;1.60;;;7.30;99.90;;;;;;5063982;28;20068;-69
2022/11/27 13:14:25;;;;;;;5.28;1.60;;;7.30;99.90;;;;;;5059941;28;20195;-67
2022/11/27 13:17:02;;;;;;;6.20;2.13;;;7.30;99.90;;;;;;5043313;28;20551;-69